createdAt,value
2018-12-04T00:00:10.384Z,0.00
2018-12-04T00:01:10.342Z,0.00
2018-12-04T00:02:10.328Z,0.00
2018-12-04T00:03:10.265Z,0.00
2018-12-04T00:04:10.221Z,0.00
2018-12-04T00:05:10.180Z,0.00
2018-12-04T00:06:10.143Z,0.00
2018-12-04T00:07:10.112Z,0.00
2018-12-04T00:08:10.049Z,0.00
2018-12-04T00:09:10.006Z,0.00
2018-12-04T00:10:09.983Z,0.00
2018-12-04T00:11:09.929Z,0.00
2018-12-04T00:12:09.912Z,0.00
2018-12-04T00:13:09.835Z,0.00
2018-12-04T00:14:09.795Z,0.00
2018-12-04T00:15:09.762Z,0.00
2018-12-04T00:16:09.721Z,0.00
2018-12-04T00:17:09.696Z,0.00
2018-12-04T00:18:09.635Z,0.00
2018-12-04T00:19:09.609Z,0.00
2018-12-04T00:20:09.541Z,0.00
2018-12-04T00:21:09.502Z,0.00
2018-12-04T00:22:09.459Z,0.00
2018-12-04T00:23:09.452Z,0.00
2018-12-04T00:24:09.380Z,0.00
2018-12-04T00:25:09.339Z,0.00
2018-12-04T00:26:09.296Z,0.00
2018-12-04T00:27:09.248Z,0.00
2018-12-04T00:28:09.203Z,0.00
2018-12-04T00:29:09.194Z,0.00
2018-12-04T00:30:09.131Z,0.00
2018-12-04T00:31:09.080Z,0.00
2018-12-04T00:32:09.035Z,0.00
2018-12-04T00:33:09.015Z,0.00
2018-12-04T00:34:08.977Z,0.00
2018-12-04T00:35:08.979Z,0.00
2018-12-04T00:36:08.872Z,0.00
2018-12-04T00:37:08.831Z,0.00
2018-12-04T00:38:08.788Z,0.00
2018-12-04T00:39:08.762Z,0.00
2018-12-04T00:40:08.695Z,0.00
2018-12-04T00:41:08.650Z,0.00
2018-12-04T00:42:08.615Z,0.00
2018-12-04T00:43:08.588Z,0.00
2018-12-04T00:44:08.555Z,0.00
2018-12-04T00:45:08.512Z,0.00
2018-12-04T00:46:08.442Z,0.00
2018-12-04T00:47:08.409Z,0.00
2018-12-04T00:48:08.361Z,0.00
2018-12-04T00:49:08.323Z,0.00
2018-12-04T00:50:08.280Z,0.00
2018-12-04T00:51:08.253Z,0.00
2018-12-04T00:52:08.186Z,0.00
2018-12-04T00:53:08.147Z,0.00
2018-12-04T00:54:08.108Z,0.00
2018-12-04T00:55:08.094Z,0.00
2018-12-04T00:56:08.028Z,0.00
2018-12-04T00:57:07.982Z,0.00
2018-12-04T00:58:07.967Z,0.00
2018-12-04T00:59:07.892Z,0.00
2018-12-04T01:00:07.850Z,0.00
2018-12-04T01:01:07.812Z,0.00
2018-12-04T01:02:07.793Z,0.00
2018-12-04T01:03:07.725Z,0.00
2018-12-04T01:04:07.708Z,0.00
2018-12-04T01:05:07.639Z,0.00
2018-12-04T01:06:07.596Z,0.00
2018-12-04T01:07:07.561Z,0.00
2018-12-04T01:08:07.520Z,0.00
2018-12-04T01:09:07.476Z,0.00
2018-12-04T01:10:07.458Z,0.00
2018-12-04T01:11:07.386Z,0.00
2018-12-04T01:12:07.342Z,0.00
2018-12-04T01:13:07.298Z,0.00
2018-12-04T01:14:07.260Z,0.00
2018-12-04T01:15:07.241Z,0.00
2018-12-04T01:16:07.180Z,0.00
2018-12-04T01:17:07.131Z,0.00
2018-12-04T01:18:07.091Z,0.00
2018-12-04T01:19:07.052Z,0.00
2018-12-04T01:20:07.032Z,0.00
2018-12-04T01:21:06.967Z,0.00
2018-12-04T01:22:06.925Z,0.00
2018-12-04T01:23:06.874Z,0.00
2018-12-04T01:24:06.833Z,0.00
2018-12-04T01:25:06.812Z,0.00
2018-12-04T01:26:06.749Z,0.00
2018-12-04T01:27:06.741Z,0.00
2018-12-04T01:28:06.671Z,0.00
2018-12-04T01:29:06.629Z,0.00
2018-12-04T01:30:06.592Z,0.00
2018-12-04T01:31:06.539Z,0.00
2018-12-04T01:32:06.522Z,0.00
2018-12-04T01:33:06.484Z,0.00
2018-12-04T01:34:06.423Z,0.00
2018-12-04T01:35:06.372Z,0.00
2018-12-04T01:36:06.326Z,0.00
2018-12-04T01:37:06.306Z,0.00
2018-12-04T01:38:06.242Z,0.00
2018-12-04T01:39:06.206Z,0.00
2018-12-04T01:40:06.162Z,0.00
2018-12-04T01:41:06.147Z,0.00
2018-12-04T01:42:06.080Z,0.00
2018-12-04T01:43:06.030Z,0.00
2018-12-04T01:44:05.984Z,0.00
2018-12-04T01:45:05.946Z,0.00
2018-12-04T01:46:05.930Z,0.00
2018-12-04T01:47:05.869Z,0.00
2018-12-04T01:48:05.828Z,0.00
2018-12-04T01:49:05.775Z,0.00
2018-12-04T01:50:05.732Z,0.00
2018-12-04T01:51:05.719Z,0.00
2018-12-04T01:52:05.681Z,0.00
2018-12-04T01:53:05.612Z,0.00
2018-12-04T01:54:05.569Z,0.00
2018-12-04T01:55:05.523Z,0.00
2018-12-04T01:56:05.508Z,0.00
2018-12-04T01:57:05.436Z,0.00
2018-12-04T01:58:05.393Z,0.00
2018-12-04T01:59:05.359Z,0.00
2018-12-04T02:00:05.315Z,0.00
2018-12-04T02:01:05.274Z,0.00
2018-12-04T02:02:05.257Z,0.00
2018-12-04T02:03:05.184Z,0.00
2018-12-04T02:04:05.140Z,0.00
2018-12-04T02:05:05.105Z,0.00
2018-12-04T02:06:05.067Z,0.00
2018-12-04T02:07:05.042Z,0.00
2018-12-04T02:08:04.968Z,0.00
2018-12-04T02:09:04.926Z,0.00
2018-12-04T02:10:04.884Z,0.00
2018-12-04T02:11:04.851Z,0.00
2018-12-04T02:12:04.807Z,0.00
2018-12-04T02:13:04.787Z,0.00
2018-12-04T02:14:04.724Z,0.00
2018-12-04T02:15:04.679Z,0.00
2018-12-04T02:16:04.628Z,0.00
2018-12-04T02:17:04.617Z,0.00
2018-12-04T02:18:04.545Z,0.00
2018-12-04T02:19:04.511Z,0.00
2018-12-04T02:20:04.467Z,0.00
2018-12-04T02:21:05.292Z,0.00
2018-12-04T02:22:04.377Z,0.00
2018-12-04T02:23:04.363Z,0.00
2018-12-04T02:24:04.297Z,0.00
2018-12-04T02:25:04.257Z,0.00
2018-12-04T02:26:04.214Z,0.00
2018-12-04T02:27:04.189Z,0.00
2018-12-04T02:28:04.151Z,0.00
2018-12-04T02:29:04.080Z,0.00
2018-12-04T02:30:04.043Z,0.00
2018-12-04T02:31:03.999Z,0.00
2018-12-04T02:32:03.957Z,0.00
2018-12-04T02:33:03.963Z,0.00
2018-12-04T02:34:03.876Z,0.00
2018-12-04T02:35:03.847Z,0.00
2018-12-04T02:36:03.785Z,0.00
2018-12-04T02:37:03.746Z,0.00
2018-12-04T02:38:03.727Z,0.00
2018-12-04T02:39:03.656Z,0.00
2018-12-04T02:40:03.611Z,0.00
2018-12-04T02:41:03.591Z,0.00
2018-12-04T02:42:03.525Z,0.00
2018-12-04T02:43:03.492Z,0.00
2018-12-04T02:44:03.447Z,0.00
2018-12-04T02:45:03.404Z,0.00
2018-12-04T02:46:03.387Z,0.00
2018-12-04T02:47:03.316Z,0.00
2018-12-04T02:48:03.272Z,0.00
2018-12-04T02:49:03.252Z,0.00
2018-12-04T02:50:03.188Z,0.00
2018-12-04T02:51:03.152Z,0.00
2018-12-04T02:52:03.138Z,0.00
2018-12-04T02:53:03.060Z,0.00
2018-12-04T02:54:03.019Z,0.00
2018-12-04T02:55:02.981Z,0.00
2018-12-04T02:56:02.940Z,0.00
2018-12-04T02:57:02.897Z,0.00
2018-12-04T02:58:02.877Z,0.00
2018-12-04T02:59:02.830Z,0.00
2018-12-04T03:00:02.761Z,0.00
2018-12-04T03:01:02.719Z,0.00
2018-12-04T03:02:02.678Z,0.00
2018-12-04T03:03:02.643Z,0.00
2018-12-04T03:04:02.624Z,0.00
2018-12-04T03:05:02.557Z,0.00
2018-12-04T03:06:02.514Z,0.00
2018-12-04T03:07:02.468Z,0.00
2018-12-04T03:08:02.420Z,0.00
2018-12-04T03:09:02.384Z,0.00
2018-12-04T03:10:02.366Z,0.00
2018-12-04T03:11:02.297Z,0.00
2018-12-04T03:12:02.252Z,0.00
2018-12-04T03:13:02.209Z,0.00
2018-12-04T03:14:02.166Z,0.00
2018-12-04T03:15:02.160Z,0.00
2018-12-04T03:16:02.087Z,0.00
2018-12-04T03:17:02.047Z,0.00
2018-12-04T03:18:02.007Z,0.00
2018-12-04T03:19:01.955Z,0.00
2018-12-04T03:20:01.912Z,0.00
2018-12-04T03:21:01.893Z,0.00
2018-12-04T03:22:01.829Z,0.00
2018-12-04T03:23:01.793Z,0.00
2018-12-04T03:24:01.749Z,0.00
2018-12-04T03:25:01.725Z,0.00
2018-12-04T03:26:01.657Z,0.00
2018-12-04T03:27:01.667Z,0.00
2018-12-04T03:28:01.581Z,0.00
2018-12-04T03:29:01.536Z,0.00
2018-12-04T03:30:01.518Z,0.00
2018-12-04T03:31:01.446Z,0.00
2018-12-04T03:32:01.427Z,0.00
2018-12-04T03:33:01.361Z,0.00
2018-12-04T03:34:01.321Z,0.00
2018-12-04T03:35:01.306Z,0.00
2018-12-04T03:36:01.240Z,0.00
2018-12-04T03:37:01.196Z,0.00
2018-12-04T03:38:01.180Z,0.00
2018-12-04T03:39:01.120Z,0.00
2018-12-04T03:40:01.063Z,0.00
2018-12-04T03:41:01.028Z,0.00
2018-12-04T03:42:00.985Z,0.00
2018-12-04T03:43:00.935Z,0.00
2018-12-04T03:44:00.914Z,0.00
2018-12-04T03:45:00.849Z,0.00
2018-12-04T03:46:00.808Z,0.00
2018-12-04T03:47:00.772Z,0.00
2018-12-04T03:48:00.733Z,0.00
2018-12-04T03:49:00.708Z,0.00
2018-12-04T03:50:00.645Z,0.00
2018-12-04T03:51:00.621Z,0.00
2018-12-04T03:52:00.561Z,0.00
2018-12-04T03:53:00.510Z,0.00
2018-12-04T03:54:00.467Z,0.00
2018-12-04T03:55:00.433Z,0.00
2018-12-04T03:56:00.411Z,0.00
2018-12-04T03:57:00.373Z,0.00
2018-12-04T03:58:00.297Z,0.00
2018-12-04T03:59:00.263Z,0.00
2018-12-04T04:00:00.220Z,0.00
2018-12-04T04:01:00.175Z,0.00
2018-12-04T04:02:00.157Z,0.00
2018-12-04T04:03:00.089Z,0.00
2018-12-04T04:04:00.044Z,0.00
2018-12-04T04:05:00.001Z,0.00
2018-12-04T04:05:59.956Z,0.00
2018-12-04T04:06:59.944Z,0.00
2018-12-04T04:07:59.880Z,0.00
2018-12-04T04:08:59.840Z,0.00
2018-12-04T04:09:59.793Z,0.00
2018-12-04T04:10:59.745Z,0.00
2018-12-04T04:11:59.725Z,0.00
2018-12-04T04:12:59.673Z,0.00
2018-12-04T04:13:59.625Z,0.00
2018-12-04T04:14:59.577Z,0.00
2018-12-04T04:15:59.542Z,0.00
2018-12-04T04:16:59.491Z,0.00
2018-12-04T04:17:59.473Z,0.00
2018-12-04T04:18:59.414Z,0.00
2018-12-04T04:19:59.367Z,0.00
2018-12-04T04:20:59.332Z,0.00
2018-12-04T04:21:59.288Z,0.00
2018-12-04T04:22:59.259Z,0.00
2018-12-04T04:23:59.192Z,0.00
2018-12-04T04:24:59.150Z,0.00
2018-12-04T04:25:59.106Z,0.00
2018-12-04T04:26:59.071Z,0.00
2018-12-04T04:27:59.053Z,0.00
2018-12-04T04:28:58.979Z,0.00
2018-12-04T04:29:58.936Z,0.00
2018-12-04T04:30:58.901Z,0.00
2018-12-04T04:31:58.858Z,0.00
2018-12-04T04:32:58.839Z,0.00
2018-12-04T04:33:58.797Z,0.00
2018-12-04T04:34:58.727Z,0.00
2018-12-04T04:35:58.685Z,0.00
2018-12-04T04:36:58.640Z,0.00
2018-12-04T04:37:58.626Z,0.00
2018-12-04T04:38:58.562Z,0.00
2018-12-04T04:39:58.518Z,0.00
2018-12-04T04:40:58.476Z,0.00
2018-12-04T04:41:58.433Z,0.00
2018-12-04T04:42:58.417Z,0.00
2018-12-04T04:43:58.345Z,0.00
2018-12-04T04:44:58.317Z,0.00
2018-12-04T04:45:58.266Z,0.00
2018-12-04T04:46:58.215Z,0.00
2018-12-04T04:47:58.171Z,0.00
2018-12-04T04:48:58.153Z,0.00
2018-12-04T04:49:58.088Z,0.00
2018-12-04T04:50:58.052Z,0.00
2018-12-04T04:51:58.009Z,0.00
2018-12-04T04:52:57.966Z,0.00
2018-12-04T04:53:57.978Z,0.00
2018-12-04T04:54:57.875Z,0.00
2018-12-04T04:55:57.836Z,0.00
2018-12-04T04:56:57.790Z,0.00
2018-12-04T04:57:57.748Z,0.00
2018-12-04T04:58:57.739Z,0.00
2018-12-04T04:59:57.671Z,0.00
2018-12-04T05:00:57.625Z,0.00
2018-12-04T05:01:57.581Z,0.00
2018-12-04T05:02:57.540Z,0.00
2018-12-04T05:03:57.500Z,0.00
2018-12-04T05:04:57.479Z,0.00
2018-12-04T05:05:57.415Z,0.00
2018-12-04T05:06:57.364Z,0.00
2018-12-04T05:07:57.344Z,0.00
2018-12-04T05:08:57.282Z,0.00
2018-12-04T05:09:57.259Z,0.00
2018-12-04T05:10:57.202Z,0.00
2018-12-04T05:11:57.157Z,0.00
2018-12-04T05:12:57.138Z,0.00
2018-12-04T05:13:57.075Z,0.00
2018-12-04T05:14:57.050Z,0.00
2018-12-04T05:15:56.981Z,0.00
2018-12-04T05:16:56.945Z,0.00
2018-12-04T05:17:56.925Z,0.00
2018-12-04T05:18:56.855Z,0.00
2018-12-04T05:19:56.812Z,0.00
2018-12-04T05:20:56.766Z,0.00
2018-12-04T05:21:56.753Z,0.00
2018-12-04T05:22:56.689Z,0.00
2018-12-04T05:23:56.646Z,0.00
2018-12-04T05:24:56.602Z,0.00
2018-12-04T05:25:56.567Z,0.00
2018-12-04T05:26:56.509Z,0.00
2018-12-04T05:27:56.491Z,0.00
2018-12-04T05:28:56.426Z,0.00
2018-12-04T05:29:56.410Z,0.00
2018-12-04T05:30:56.348Z,0.00
2018-12-04T05:31:56.306Z,0.00
2018-12-04T05:32:56.254Z,0.00
2018-12-04T05:33:56.240Z,0.00
2018-12-04T05:34:56.182Z,0.00
2018-12-04T05:35:56.132Z,0.00
2018-12-04T05:36:56.098Z,0.00
2018-12-04T05:37:56.048Z,0.00
2018-12-04T05:38:55.998Z,0.00
2018-12-04T05:39:55.977Z,0.00
2018-12-04T05:40:55.915Z,0.00
2018-12-04T05:41:55.891Z,0.00
2018-12-04T05:42:55.835Z,0.00
2018-12-04T05:43:55.790Z,0.00
2018-12-04T05:44:55.770Z,0.00
2018-12-04T05:45:55.705Z,0.00
2018-12-04T05:46:55.658Z,0.00
2018-12-04T05:47:55.611Z,0.00
2018-12-04T05:48:55.580Z,0.00
2018-12-04T05:49:55.536Z,0.00
2018-12-04T05:50:55.511Z,0.00
2018-12-04T05:51:55.463Z,0.00
2018-12-04T05:52:55.399Z,0.00
2018-12-04T05:53:55.358Z,0.00
2018-12-04T05:54:55.322Z,0.00
2018-12-04T05:55:55.282Z,0.00
2018-12-04T05:56:55.259Z,0.00
2018-12-04T05:57:55.194Z,0.00
2018-12-04T05:58:55.144Z,0.00
2018-12-04T05:59:55.098Z,0.00
2018-12-04T06:00:55.057Z,0.00
2018-12-04T06:01:55.038Z,0.00
2018-12-04T06:02:54.982Z,0.00
2018-12-04T06:03:54.934Z,0.00
2018-12-04T06:04:54.887Z,0.00
2018-12-04T06:05:54.868Z,0.00
2018-12-04T06:06:54.832Z,0.00
2018-12-04T06:07:54.787Z,0.00
2018-12-04T06:08:54.723Z,0.00
2018-12-04T06:09:54.681Z,0.00
2018-12-04T06:10:54.632Z,0.00
2018-12-04T06:11:54.586Z,0.00
2018-12-04T06:12:54.567Z,0.00
2018-12-04T06:13:54.503Z,0.00
2018-12-04T06:14:54.465Z,0.00
2018-12-04T06:15:54.423Z,0.00
2018-12-04T06:16:54.406Z,0.00
2018-12-04T06:17:54.340Z,0.00
2018-12-04T06:18:54.291Z,0.00
2018-12-04T06:19:54.245Z,0.00
2018-12-04T06:20:54.210Z,0.00
2018-12-04T06:21:54.191Z,0.00
2018-12-04T06:22:54.116Z,0.00
2018-12-04T06:23:54.076Z,0.00
2018-12-04T06:24:54.030Z,0.00
2018-12-04T06:25:53.988Z,0.00
2018-12-04T06:26:53.982Z,0.00
2018-12-04T06:27:53.910Z,0.00
2018-12-04T06:28:53.868Z,0.00
2018-12-04T06:29:53.826Z,0.00
2018-12-04T06:30:53.775Z,0.00
2018-12-04T06:31:53.733Z,0.00
2018-12-04T06:32:53.718Z,0.00
2018-12-04T06:33:53.648Z,0.00
2018-12-04T06:34:53.613Z,0.00
2018-12-04T06:35:53.565Z,0.00
2018-12-04T06:36:53.518Z,0.00
2018-12-04T06:37:53.484Z,0.00
2018-12-04T06:38:53.466Z,0.00
2018-12-04T06:39:53.399Z,0.00
2018-12-04T06:40:53.355Z,0.00
2018-12-04T06:41:53.313Z,0.00
2018-12-04T06:42:53.263Z,0.00
2018-12-04T06:43:53.220Z,0.00
2018-12-04T06:44:53.199Z,0.00
2018-12-04T06:45:53.135Z,0.00
2018-12-04T06:46:53.099Z,0.00
2018-12-04T06:47:53.055Z,0.00
2018-12-04T06:48:53.042Z,0.00
2018-12-04T06:49:52.970Z,0.00
2018-12-04T06:50:52.920Z,0.00
2018-12-04T06:51:52.877Z,0.00
2018-12-04T06:52:52.842Z,0.00
2018-12-04T06:53:52.799Z,0.00
2018-12-04T06:54:52.778Z,0.00
2018-12-04T06:55:52.704Z,0.00
2018-12-04T06:56:52.664Z,0.00
2018-12-04T06:57:52.620Z,0.00
2018-12-04T06:58:52.585Z,0.00
2018-12-04T06:59:52.541Z,0.00
2018-12-04T07:00:52.522Z,0.00
2018-12-04T07:01:52.456Z,0.00
2018-12-04T07:02:52.407Z,0.00
2018-12-04T07:03:52.361Z,0.00
2018-12-04T07:04:52.321Z,0.00
2018-12-04T07:05:52.314Z,0.00
2018-12-04T07:06:52.243Z,5.63
2018-12-04T07:07:52.201Z,5.63
2018-12-04T07:08:52.148Z,5.63
2018-12-04T07:09:52.109Z,5.63
2018-12-04T07:10:52.076Z,5.63
2018-12-04T07:11:52.053Z,5.63
2018-12-04T07:12:51.989Z,5.63
2018-12-04T07:13:51.945Z,11.25
2018-12-04T07:14:51.895Z,11.25
2018-12-04T07:15:51.850Z,11.25
2018-12-04T07:16:51.837Z,11.25
2018-12-04T07:17:51.766Z,11.25
2018-12-04T07:18:51.732Z,16.88
2018-12-04T07:19:51.692Z,16.88
2018-12-04T07:20:51.646Z,16.88
2018-12-04T07:21:51.601Z,16.88
2018-12-04T07:22:51.577Z,22.50
2018-12-04T07:23:51.510Z,22.50
2018-12-04T07:24:52.532Z,22.50
2018-12-04T07:25:51.998Z,28.13
2018-12-04T07:26:51.384Z,28.13
2018-12-04T07:27:51.361Z,33.75
2018-12-04T07:28:51.325Z,33.75
2018-12-04T07:29:51.256Z,33.75
2018-12-04T07:30:51.216Z,39.38
2018-12-04T07:31:51.182Z,39.38
2018-12-04T07:32:51.137Z,39.38
2018-12-04T07:33:51.091Z,39.38
2018-12-04T07:34:51.062Z,45.00
2018-12-04T07:35:51.002Z,45.00
2018-12-04T07:36:50.955Z,45.00
2018-12-04T07:37:50.913Z,50.63
2018-12-04T07:38:50.878Z,50.63
2018-12-04T07:39:50.856Z,56.25
2018-12-04T07:40:50.790Z,61.88
2018-12-04T07:41:50.744Z,67.50
2018-12-04T07:42:50.733Z,67.50
2018-12-04T07:43:50.665Z,61.88
2018-12-04T07:44:50.647Z,61.88
2018-12-04T07:45:50.578Z,61.88
2018-12-04T07:46:50.530Z,61.88
2018-12-04T07:47:51.219Z,61.88
2018-12-04T07:48:50.474Z,67.50
2018-12-04T07:49:50.409Z,67.50
2018-12-04T07:50:50.357Z,73.13
2018-12-04T07:51:50.537Z,73.13
2018-12-04T07:52:50.399Z,78.75
2018-12-04T07:53:50.323Z,78.75
2018-12-04T07:54:50.579Z,78.75
2018-12-04T07:55:50.299Z,78.75
2018-12-04T07:56:50.114Z,78.75
2018-12-04T07:57:50.170Z,78.75
2018-12-04T07:58:50.051Z,78.75
2018-12-04T07:59:50.153Z,78.75
2018-12-04T08:00:50.314Z,78.75
2018-12-04T08:01:49.902Z,78.75
2018-12-04T08:02:50.191Z,78.75
2018-12-04T08:03:49.806Z,78.75
2018-12-04T08:04:50.115Z,84.38
2018-12-04T08:05:49.814Z,84.38
2018-12-04T08:06:49.722Z,90.00
2018-12-04T08:07:49.645Z,90.00
2018-12-04T08:08:49.606Z,95.63
2018-12-04T08:09:49.560Z,95.63
2018-12-04T08:10:49.602Z,101.25
2018-12-04T08:11:49.482Z,106.88
2018-12-04T08:12:49.469Z,106.88
2018-12-04T08:13:49.400Z,112.50
2018-12-04T08:14:49.431Z,112.50
2018-12-04T08:15:49.305Z,112.50
2018-12-04T08:16:49.279Z,118.13
2018-12-04T08:17:49.218Z,118.13
2018-12-04T08:18:49.183Z,123.75
2018-12-04T08:19:49.136Z,140.63
2018-12-04T08:20:49.113Z,151.88
2018-12-04T08:21:49.078Z,157.50
2018-12-04T08:22:49.002Z,168.75
2018-12-04T08:23:48.960Z,180.00
2018-12-04T08:24:48.916Z,185.63
2018-12-04T08:25:48.874Z,191.25
2018-12-04T08:26:48.837Z,196.88
2018-12-04T08:27:48.822Z,185.63
2018-12-04T08:28:48.747Z,185.63
2018-12-04T08:29:48.709Z,185.63
2018-12-04T08:30:48.673Z,185.63
2018-12-04T08:31:48.906Z,185.63
2018-12-04T08:32:48.761Z,191.25
2018-12-04T08:33:48.543Z,191.25
2018-12-04T08:34:48.495Z,196.88
2018-12-04T08:35:48.452Z,202.50
2018-12-04T08:36:48.413Z,219.38
2018-12-04T08:37:48.390Z,236.25
2018-12-04T08:38:48.332Z,253.13
2018-12-04T08:39:48.291Z,270.00
2018-12-04T08:40:48.284Z,286.88
2018-12-04T08:41:48.203Z,320.63
2018-12-04T08:42:48.184Z,376.88
2018-12-04T08:43:48.113Z,579.38
2018-12-04T08:44:48.078Z,663.75
2018-12-04T08:45:48.034Z,680.63
2018-12-04T08:46:47.985Z,691.88
2018-12-04T08:47:47.968Z,680.63
2018-12-04T08:48:47.902Z,495.00
2018-12-04T08:49:47.864Z,286.88
2018-12-04T08:50:47.828Z,258.75
2018-12-04T08:51:47.783Z,275.63
2018-12-04T08:52:47.765Z,270.00
2018-12-04T08:53:47.702Z,275.63
2018-12-04T08:54:47.658Z,275.63
2018-12-04T08:55:47.613Z,286.88
2018-12-04T08:56:47.571Z,298.13
2018-12-04T08:57:47.552Z,410.63
2018-12-04T08:58:47.497Z,978.75
2018-12-04T08:59:47.453Z,1074.38
2018-12-04T09:00:47.406Z,787.50
2018-12-04T09:01:47.365Z,1209.38
2018-12-04T09:02:47.357Z,1029.38
2018-12-04T09:03:47.290Z,911.25
2018-12-04T09:04:47.248Z,348.75
2018-12-04T09:05:47.214Z,292.50
2018-12-04T09:06:47.190Z,241.88
2018-12-04T09:07:47.143Z,253.13
2018-12-04T09:08:47.152Z,247.50
2018-12-04T09:09:47.041Z,247.50
2018-12-04T09:10:47.004Z,303.75
2018-12-04T09:11:46.988Z,286.88
2018-12-04T09:12:46.923Z,337.50
2018-12-04T09:13:46.882Z,382.50
2018-12-04T09:14:46.835Z,450.00
2018-12-04T09:15:46.795Z,540.00
2018-12-04T09:16:46.856Z,590.63
2018-12-04T09:17:46.721Z,1119.38
2018-12-04T09:18:46.714Z,1192.50
2018-12-04T09:19:46.676Z,1186.88
2018-12-04T09:20:46.673Z,1153.13
2018-12-04T09:21:46.593Z,1091.25
2018-12-04T09:22:46.526Z,1023.75
2018-12-04T09:23:46.550Z,967.50
2018-12-04T09:24:46.451Z,911.25
2018-12-04T09:25:46.421Z,877.50
2018-12-04T09:26:46.376Z,838.13
2018-12-04T09:27:46.337Z,585.00
2018-12-04T09:28:46.307Z,298.13
2018-12-04T09:29:46.250Z,652.50
2018-12-04T09:30:46.199Z,528.75
2018-12-04T09:31:46.161Z,393.75
2018-12-04T09:32:46.112Z,360.00
2018-12-04T09:33:46.075Z,247.50
2018-12-04T09:34:46.068Z,230.63
2018-12-04T09:35:46.004Z,225.00
2018-12-04T09:36:45.962Z,225.00
2018-12-04T09:37:45.923Z,236.25
2018-12-04T09:38:45.905Z,253.13
2018-12-04T09:39:45.839Z,371.25
2018-12-04T09:40:45.824Z,686.25
2018-12-04T09:41:45.786Z,680.63
2018-12-04T09:42:45.749Z,658.13
2018-12-04T09:43:45.689Z,641.25
2018-12-04T09:44:45.650Z,618.75
2018-12-04T09:45:45.614Z,613.13
2018-12-04T09:46:45.586Z,601.88
2018-12-04T09:47:45.523Z,596.25
2018-12-04T09:48:45.491Z,590.63
2018-12-04T09:49:45.452Z,596.25
2018-12-04T09:50:45.406Z,590.63
2018-12-04T09:51:45.389Z,590.63
2018-12-04T09:52:45.357Z,596.25
2018-12-04T09:53:45.291Z,596.25
2018-12-04T09:54:45.280Z,596.25
2018-12-04T09:55:45.225Z,601.88
2018-12-04T09:56:45.179Z,607.50
2018-12-04T09:57:45.147Z,601.88
2018-12-04T09:58:45.100Z,596.25
2018-12-04T09:59:45.089Z,596.25
2018-12-04T10:00:45.022Z,596.25
2018-12-04T10:01:44.988Z,601.88
2018-12-04T10:02:44.955Z,601.88
2018-12-04T10:03:44.915Z,613.13
2018-12-04T10:04:44.899Z,613.13
2018-12-04T10:05:44.839Z,613.13
2018-12-04T10:06:44.829Z,607.50
2018-12-04T10:07:44.770Z,607.50
2018-12-04T10:08:44.733Z,607.50
2018-12-04T10:09:44.696Z,601.88
2018-12-04T10:10:44.674Z,601.88
2018-12-04T10:11:44.616Z,601.88
2018-12-04T10:12:44.605Z,601.88
2018-12-04T10:13:44.542Z,590.63
2018-12-04T10:14:44.518Z,607.50
2018-12-04T10:15:44.502Z,613.13
2018-12-04T10:16:44.439Z,607.50
2018-12-04T10:17:44.400Z,601.88
2018-12-04T10:18:47.684Z,607.50
2018-12-04T10:19:44.324Z,607.50
2018-12-04T10:20:44.317Z,601.88
2018-12-04T10:21:44.259Z,601.88
2018-12-04T10:22:44.218Z,590.63
2018-12-04T10:23:44.176Z,573.75
2018-12-04T10:24:44.143Z,579.38
2018-12-04T10:25:44.131Z,585.00
2018-12-04T10:26:44.083Z,596.25
2018-12-04T10:27:44.047Z,613.13
2018-12-04T10:28:44.030Z,652.50
2018-12-04T10:29:43.971Z,658.13
2018-12-04T10:30:43.955Z,658.13
2018-12-04T10:31:43.893Z,663.75
2018-12-04T10:32:43.861Z,652.50
2018-12-04T10:33:43.821Z,646.88
2018-12-04T10:34:43.795Z,641.25
2018-12-04T10:35:43.756Z,630.00
2018-12-04T10:36:43.742Z,613.13
2018-12-04T10:37:43.681Z,607.50
2018-12-04T10:38:43.656Z,517.50
2018-12-04T10:39:43.614Z,388.13
2018-12-04T10:40:43.605Z,416.25
2018-12-04T10:41:43.565Z,466.88
2018-12-04T10:42:43.503Z,466.88
2018-12-04T10:43:43.469Z,500.63
2018-12-04T10:44:43.436Z,646.88
2018-12-04T10:45:43.396Z,646.88
2018-12-04T10:46:43.388Z,438.75
2018-12-04T10:47:43.327Z,393.75
2018-12-04T10:48:43.292Z,455.63
2018-12-04T10:49:43.257Z,568.13
2018-12-04T10:50:43.212Z,630.00
2018-12-04T10:51:43.203Z,534.38
2018-12-04T10:52:43.148Z,658.13
2018-12-04T10:53:43.111Z,630.00
2018-12-04T10:54:43.067Z,663.75
2018-12-04T10:55:43.030Z,703.13
2018-12-04T10:56:42.996Z,922.50
2018-12-04T10:57:42.980Z,720.00
2018-12-04T10:58:42.929Z,613.13
2018-12-04T10:59:42.912Z,590.63
2018-12-04T11:00:42.851Z,596.25
2018-12-04T11:01:42.818Z,731.25
2018-12-04T11:02:42.776Z,500.63
2018-12-04T11:03:42.738Z,444.38
2018-12-04T11:04:42.717Z,405.00
2018-12-04T11:05:42.660Z,399.38
2018-12-04T11:06:42.630Z,376.88
2018-12-04T11:07:42.595Z,371.25
2018-12-04T11:08:42.546Z,371.25
2018-12-04T11:09:42.532Z,371.25
2018-12-04T11:10:42.478Z,376.88
2018-12-04T11:11:42.444Z,438.75
2018-12-04T11:12:42.401Z,506.25
2018-12-04T11:13:42.364Z,601.88
2018-12-04T11:14:42.345Z,646.88
2018-12-04T11:15:42.279Z,686.25
2018-12-04T11:16:42.241Z,686.25
2018-12-04T11:17:42.202Z,714.38
2018-12-04T11:18:42.173Z,714.38
2018-12-04T11:19:42.156Z,568.13
2018-12-04T11:20:42.095Z,641.25
2018-12-04T11:21:42.058Z,1181.25
2018-12-04T11:22:42.007Z,731.25
2018-12-04T11:23:41.972Z,540.00
2018-12-04T11:24:41.989Z,461.25
2018-12-04T11:25:41.900Z,579.38
2018-12-04T11:26:41.858Z,528.75
2018-12-04T11:27:41.815Z,573.75
2018-12-04T11:28:41.783Z,669.38
2018-12-04T11:29:41.755Z,1417.50
2018-12-04T11:30:41.731Z,1473.75
2018-12-04T11:31:41.665Z,669.38
2018-12-04T11:32:41.630Z,641.25
2018-12-04T11:33:41.613Z,922.50
2018-12-04T11:34:41.542Z,641.25
2018-12-04T11:35:41.504Z,562.50
2018-12-04T11:36:41.465Z,540.00
2018-12-04T11:37:41.433Z,545.63
2018-12-04T11:38:41.422Z,540.00
2018-12-04T11:39:41.381Z,573.75
2018-12-04T11:40:41.310Z,590.63
2018-12-04T11:41:41.275Z,804.38
2018-12-04T11:42:41.243Z,945.00
2018-12-04T11:43:41.203Z,871.88
2018-12-04T11:44:41.189Z,736.88
2018-12-04T11:45:41.122Z,759.38
2018-12-04T11:46:41.087Z,888.75
2018-12-04T11:47:41.042Z,826.88
2018-12-04T11:48:41.002Z,630.00
2018-12-04T11:49:40.994Z,562.50
2018-12-04T11:50:40.935Z,607.50
2018-12-04T11:51:40.893Z,438.75
2018-12-04T11:52:40.856Z,421.88
2018-12-04T11:53:40.822Z,438.75
2018-12-04T11:54:40.773Z,495.00
2018-12-04T11:55:41.005Z,691.88
2018-12-04T11:56:40.708Z,511.88
2018-12-04T11:57:40.664Z,478.13
2018-12-04T11:58:40.622Z,506.25
2018-12-04T11:59:40.581Z,545.63
2018-12-04T12:00:40.570Z,506.25
2018-12-04T12:01:40.506Z,849.38
2018-12-04T12:02:40.472Z,517.50
2018-12-04T12:03:40.667Z,630.00
2018-12-04T12:04:40.398Z,725.63
2018-12-04T12:05:40.390Z,770.63
2018-12-04T12:06:40.317Z,804.38
2018-12-04T12:07:40.274Z,765.00
2018-12-04T12:08:40.237Z,731.25
2018-12-04T12:09:40.200Z,849.38
2018-12-04T12:10:40.166Z,680.63
2018-12-04T12:11:40.152Z,641.25
2018-12-04T12:12:40.082Z,613.13
2018-12-04T12:13:40.066Z,601.88
2018-12-04T12:14:40.014Z,579.38
2018-12-04T12:15:39.974Z,511.88
2018-12-04T12:16:39.934Z,478.13
2018-12-04T12:17:39.898Z,455.63
2018-12-04T12:18:39.879Z,421.88
2018-12-04T12:19:39.813Z,405.00
2018-12-04T12:20:39.774Z,393.75
2018-12-04T12:21:39.739Z,376.88
2018-12-04T12:22:39.710Z,371.25
2018-12-04T12:23:39.711Z,376.88
2018-12-04T12:24:39.627Z,371.25
2018-12-04T12:25:39.588Z,337.50
2018-12-04T12:26:39.541Z,331.88
2018-12-04T12:27:39.530Z,315.00
2018-12-04T12:28:39.471Z,303.75
2018-12-04T12:29:39.433Z,331.88
2018-12-04T12:30:39.384Z,337.50
2018-12-04T12:31:39.372Z,348.75
2018-12-04T12:32:39.306Z,354.38
2018-12-04T12:33:39.266Z,376.88
2018-12-04T12:34:48.375Z,399.38
2018-12-04T12:35:48.391Z,438.75
2018-12-04T12:36:39.168Z,472.50
2018-12-04T12:37:39.106Z,500.63
2018-12-04T12:38:39.074Z,511.88
2018-12-04T12:39:39.034Z,556.88
2018-12-04T12:40:38.987Z,573.75
2018-12-04T12:41:38.976Z,562.50
2018-12-04T12:42:38.950Z,534.38
2018-12-04T12:43:38.876Z,506.25
2018-12-04T12:44:38.836Z,489.38
2018-12-04T12:45:48.042Z,483.75
2018-12-04T12:46:38.768Z,478.13
2018-12-04T12:47:38.729Z,478.13
2018-12-04T12:48:38.680Z,466.88
2018-12-04T12:49:38.643Z,478.13
2018-12-04T12:50:38.604Z,495.00
2018-12-04T12:51:38.565Z,506.25
2018-12-04T12:52:38.559Z,483.75
2018-12-04T12:53:38.472Z,433.13
2018-12-04T12:54:38.469Z,410.63
2018-12-04T12:55:38.401Z,393.75
2018-12-04T12:56:38.381Z,382.50